createdAt,value
2023-10-06T00:02:29.878Z,5.94
2023-10-06T00:04:57.106Z,5.84
2023-10-06T00:07:25.162Z,5.84
2023-10-06T00:09:54.629Z,5.92
2023-10-06T00:12:21.615Z,5.80
2023-10-06T00:14:51.479Z,5.81
2023-10-06T00:17:18.899Z,5.69
2023-10-06T00:19:46.679Z,5.67
2023-10-06T00:22:16.223Z,5.76
2023-10-06T00:24:45.678Z,5.72
2023-10-06T00:27:12.655Z,5.71
2023-10-06T00:29:39.867Z,5.72
2023-10-06T00:32:27.305Z,5.80
2023-10-06T00:34:56.555Z,5.68
2023-10-06T00:37:26.661Z,5.72
2023-10-06T00:39:57.287Z,5.55
2023-10-06T00:42:23.972Z,5.64
2023-10-06T00:44:50.951Z,5.49
2023-10-06T00:47:18.491Z,5.53
2023-10-06T00:49:45.871Z,5.39
2023-10-06T00:52:13.598Z,5.43
2023-10-06T00:54:45.746Z,5.53
2023-10-06T00:57:13.563Z,5.46
2023-10-06T00:59:42.532Z,5.64
2023-10-06T01:02:12.904Z,5.11
2023-10-06T01:04:47.152Z,5.50
2023-10-06T01:07:18.288Z,5.58
2023-10-06T01:09:58.538Z,5.57
2023-10-06T01:12:26.322Z,5.49
2023-10-06T01:15:06.345Z,5.48
2023-10-06T01:17:33.833Z,5.43
2023-10-06T01:20:01.093Z,5.52
2023-10-06T01:22:31.760Z,5.42
2023-10-06T01:25:04.390Z,5.38
2023-10-06T01:27:30.835Z,5.43
2023-10-06T01:30:16.375Z,5.50
2023-10-06T01:32:46.855Z,5.44
2023-10-06T01:35:14.288Z,5.52
2023-10-06T01:37:45.232Z,5.48
2023-10-06T01:40:36.244Z,5.62
2023-10-06T01:43:10.641Z,5.57
2023-10-06T01:45:44.888Z,5.59
2023-10-06T01:48:14.857Z,5.46
2023-10-06T01:50:42.449Z,5.65
2023-10-06T01:53:12.237Z,5.55
2023-10-06T01:55:39.669Z,5.65
2023-10-06T01:58:08.365Z,5.86
2023-10-06T02:00:37.089Z,6.32
2023-10-06T02:03:12.885Z,6.55
2023-10-06T02:05:40.052Z,6.63
2023-10-06T02:08:16.034Z,6.66
2023-10-06T02:10:44.418Z,6.78
2023-10-06T02:13:11.177Z,6.74
2023-10-06T02:15:37.618Z,6.79
2023-10-06T02:18:08.254Z,6.97
2023-10-06T02:20:36.111Z,7.03
2023-10-06T02:23:04.528Z,7.02
2023-10-06T02:25:32.714Z,6.99
2023-10-06T02:28:01.072Z,6.96
2023-10-06T02:30:38.733Z,6.89
2023-10-06T02:33:08.777Z,7.10
2023-10-06T02:35:46.871Z,7.01
2023-10-06T02:38:13.462Z,7.20
2023-10-06T02:40:46.174Z,7.33
2023-10-06T02:43:21.598Z,7.59
2023-10-06T02:45:48.543Z,7.41
2023-10-06T02:48:23.130Z,7.65
2023-10-06T02:50:55.184Z,7.49
2023-10-06T02:53:22.481Z,7.59
2023-10-06T02:55:56.692Z,7.59
2023-10-06T02:58:31.872Z,7.58
2023-10-06T03:00:59.228Z,7.53
2023-10-06T03:03:29.502Z,7.43
2023-10-06T03:05:57.211Z,7.38
2023-10-06T03:08:30.835Z,7.55
2023-10-06T03:10:57.414Z,7.61
2023-10-06T03:13:44.747Z,7.70
2023-10-06T03:16:12.170Z,7.60
2023-10-06T03:18:39.697Z,7.22
2023-10-06T03:21:14.794Z,7.40
2023-10-06T03:23:45.264Z,7.16
2023-10-06T03:26:31.822Z,7.05
2023-10-06T03:29:03.947Z,7.46
2023-10-06T03:31:45.829Z,7.17
2023-10-06T03:34:17.648Z,7.04
2023-10-06T03:36:52.475Z,7.05
2023-10-06T03:39:25.050Z,6.91
2023-10-06T03:41:56.269Z,6.91
2023-10-06T03:44:30.886Z,6.85
2023-10-06T03:47:01.834Z,6.68
2023-10-06T03:49:28.861Z,6.83
2023-10-06T03:51:58.020Z,7.00
2023-10-06T03:54:24.903Z,7.01
2023-10-06T03:56:51.488Z,6.95
2023-10-06T03:59:18.032Z,6.75
2023-10-06T04:01:47.349Z,6.93
2023-10-06T04:04:16.437Z,6.92
2023-10-06T04:06:43.183Z,6.85
2023-10-06T04:09:12.859Z,6.88
2023-10-06T04:11:39.479Z,6.33
2023-10-06T04:14:06.857Z,7.03
2023-10-06T04:16:46.823Z,6.77
2023-10-06T04:19:16.520Z,6.65
2023-10-06T04:21:43.645Z,6.77
2023-10-06T04:24:10.949Z,6.64
2023-10-06T04:26:38.004Z,6.71
2023-10-06T04:29:06.554Z,6.70
2023-10-06T04:31:34.247Z,6.39
2023-10-06T04:34:02.378Z,6.25
2023-10-06T04:36:28.928Z,6.23
2023-10-06T04:38:57.854Z,6.16
2023-10-06T04:41:24.674Z,6.09
2023-10-06T04:43:53.190Z,5.98
2023-10-06T04:46:20.111Z,5.90
2023-10-06T04:48:49.055Z,5.84
2023-10-06T04:51:16.072Z,5.76
2023-10-06T04:53:42.999Z,5.71
2023-10-06T04:56:09.927Z,5.63
2023-10-06T04:58:43.468Z,5.39
2023-10-06T05:01:12.152Z,5.48
2023-10-06T05:03:45.020Z,5.49
2023-10-06T05:06:22.362Z,5.35
2023-10-06T05:08:51.188Z,5.09
2023-10-06T05:11:19.596Z,5.09
2023-10-06T05:13:50.448Z,5.07
2023-10-06T05:16:20.209Z,4.93
2023-10-06T05:18:47.598Z,4.94
2023-10-06T05:21:14.049Z,4.90
2023-10-06T05:23:40.476Z,4.91
2023-10-06T05:26:11.705Z,4.77
2023-10-06T05:28:38.603Z,4.82
2023-10-06T05:31:08.080Z,4.87
2023-10-06T05:33:34.973Z,4.70
2023-10-06T05:36:10.946Z,4.77
2023-10-06T05:38:38.570Z,4.74
2023-10-06T05:41:06.767Z,4.79
2023-10-06T05:43:33.220Z,4.79
2023-10-06T05:45:59.883Z,4.76
2023-10-06T05:48:31.408Z,4.59
2023-10-06T05:51:06.056Z,4.85
2023-10-06T05:53:40.164Z,4.99
2023-10-06T05:56:10.053Z,4.93
2023-10-06T05:58:38.815Z,4.91
2023-10-06T06:01:12.291Z,4.94
2023-10-06T06:03:51.162Z,4.39
2023-10-06T06:06:23.447Z,5.08
2023-10-06T06:08:50.502Z,5.24
2023-10-06T06:11:17.766Z,5.30
2023-10-06T06:13:44.732Z,5.25
2023-10-06T06:16:11.799Z,5.32
2023-10-06T06:18:43.912Z,5.43
2023-10-06T06:21:12.055Z,5.61
2023-10-06T06:23:38.730Z,5.61
2023-10-06T06:26:05.332Z,5.72
2023-10-06T06:28:31.884Z,5.80
2023-10-06T06:31:05.006Z,5.89
2023-10-06T06:33:33.757Z,5.92
2023-10-06T06:36:01.606Z,5.98
2023-10-06T06:38:28.121Z,6.19
2023-10-06T06:40:54.922Z,6.15
2023-10-06T06:43:22.599Z,6.21
2023-10-06T06:45:49.057Z,6.26
2023-10-06T06:48:17.981Z,6.37
2023-10-06T06:50:45.144Z,6.51
2023-10-06T06:53:12.456Z,6.51
2023-10-06T06:55:40.545Z,6.72
2023-10-06T06:58:12.170Z,6.80
2023-10-06T07:00:41.099Z,6.89
2023-10-06T07:03:07.929Z,6.92
2023-10-06T07:05:37.119Z,6.95
2023-10-06T07:08:07.059Z,7.07
2023-10-06T07:10:34.411Z,7.23
2023-10-06T07:13:02.078Z,7.28
2023-10-06T07:15:31.324Z,7.36
2023-10-06T07:17:59.377Z,7.40
2023-10-06T07:20:31.451Z,7.56
2023-10-06T07:23:05.062Z,7.74
2023-10-06T07:25:32.408Z,7.68
2023-10-06T07:28:00.734Z,7.87
2023-10-06T07:30:29.752Z,7.92
2023-10-06T07:32:56.813Z,8.02
2023-10-06T07:35:32.157Z,7.96
2023-10-06T07:37:59.559Z,8.19
2023-10-06T07:40:28.700Z,8.30
2023-10-06T07:42:59.843Z,8.35
2023-10-06T07:45:30.296Z,8.37
2023-10-06T07:47:56.824Z,8.48
2023-10-06T07:50:23.433Z,8.67
2023-10-06T07:52:50.006Z,8.75
2023-10-06T07:55:22.354Z,8.90
2023-10-06T07:57:52.421Z,8.96
2023-10-06T08:00:31.280Z,8.99
2023-10-06T08:02:59.951Z,9.49
2023-10-06T08:05:30.105Z,9.50
2023-10-06T08:07:59.521Z,9.55
2023-10-06T08:10:26.598Z,9.57
2023-10-06T08:12:57.418Z,9.75
2023-10-06T08:15:23.975Z,9.68
2023-10-06T08:17:54.106Z,10.00
2023-10-06T08:20:21.840Z,10.15
2023-10-06T08:22:49.050Z,10.15
2023-10-06T08:25:16.709Z,10.34
2023-10-06T08:27:43.997Z,10.53
2023-10-06T08:30:18.165Z,10.52
2023-10-06T08:32:49.211Z,10.61
2023-10-06T08:35:16.311Z,10.84
2023-10-06T08:37:43.853Z,11.02
2023-10-06T08:40:20.632Z,11.08
2023-10-06T08:42:57.568Z,11.41
2023-10-06T08:45:29.133Z,11.35
2023-10-06T08:48:03.095Z,11.46
2023-10-06T08:50:34.558Z,11.69
2023-10-06T08:53:05.909Z,11.80
2023-10-06T08:55:33.104Z,11.89
2023-10-06T08:58:02.032Z,11.97
2023-10-06T09:00:32.948Z,12.07
2023-10-06T09:03:08.420Z,12.22
2023-10-06T09:05:38.685Z,12.31
2023-10-06T09:08:08.930Z,12.40
2023-10-06T09:10:41.667Z,12.51
2023-10-06T09:13:12.829Z,12.42
2023-10-06T09:15:41.834Z,12.73
2023-10-06T09:18:21.995Z,12.87
2023-10-06T09:20:50.239Z,13.05
2023-10-06T09:23:43.889Z,13.19
2023-10-06T09:26:20.217Z,13.29
2023-10-06T09:28:51.878Z,13.36
2023-10-06T09:31:38.720Z,13.45
2023-10-06T09:34:10.819Z,13.57
2023-10-06T09:39:34.121Z,14.11
2023-10-06T09:42:02.224Z,14.22
2023-10-06T09:44:30.807Z,14.46
2023-10-06T09:47:01.024Z,14.68
2023-10-06T09:49:29.489Z,14.54
2023-10-06T09:51:58.736Z,14.72
2023-10-06T09:54:25.372Z,14.86
2023-10-06T09:56:56.282Z,14.96
2023-10-06T09:59:24.835Z,15.30
2023-10-06T10:01:52.753Z,15.42
2023-10-06T10:04:19.747Z,15.31
2023-10-06T10:06:46.498Z,15.79
2023-10-06T10:09:17.510Z,15.99
2023-10-06T10:12:03.613Z,15.91
2023-10-06T10:14:56.386Z,16.39
2023-10-06T10:17:55.517Z,16.38
2023-10-06T10:20:26.676Z,16.29
2023-10-06T10:22:58.101Z,16.39
2023-10-06T10:25:25.846Z,16.43
2023-10-06T10:28:20.692Z,16.68
2023-10-06T10:31:00.810Z,16.82
2023-10-06T10:33:40.144Z,16.82
2023-10-06T10:36:18.870Z,17.04
2023-10-06T10:38:46.592Z,17.16
2023-10-06T10:41:13.916Z,17.12
2023-10-06T10:43:46.504Z,17.24
2023-10-06T10:46:14.026Z,17.43
2023-10-06T10:48:48.779Z,17.04
2023-10-06T10:51:16.316Z,17.12
2023-10-06T10:53:45.004Z,17.51
2023-10-06T10:56:20.599Z,17.37
2023-10-06T10:58:49.184Z,17.48
2023-10-06T11:01:25.469Z,17.51
2023-10-06T11:04:10.937Z,17.63
2023-10-06T11:06:40.638Z,17.62
2023-10-06T11:09:33.414Z,17.71
2023-10-06T11:12:20.817Z,17.83
2023-10-06T11:14:52.467Z,17.87
2023-10-06T11:17:24.320Z,17.67
2023-10-06T11:20:14.452Z,17.87
2023-10-06T11:22:51.537Z,17.73
2023-10-06T11:25:18.106Z,17.62
2023-10-06T11:27:44.690Z,17.72
2023-10-06T11:30:16.399Z,17.75
2023-10-06T11:32:43.125Z,17.86
2023-10-06T11:35:11.794Z,17.97
2023-10-06T11:37:38.444Z,18.25
2023-10-06T11:40:06.488Z,18.14
2023-10-06T11:42:38.075Z,18.23
2023-10-06T11:45:12.605Z,18.33
2023-10-06T11:47:40.724Z,18.58
2023-10-06T11:50:10.216Z,18.61
2023-10-06T11:52:44.545Z,18.77
2023-10-06T11:55:15.669Z,18.47
2023-10-06T11:57:49.129Z,18.91
2023-10-06T12:00:19.139Z,18.53
2023-10-06T12:02:52.701Z,18.35
2023-10-06T12:05:23.557Z,18.41
2023-10-06T12:07:53.524Z,18.83
2023-10-06T12:10:22.438Z,18.77
2023-10-06T12:12:51.763Z,18.91
2023-10-06T12:15:18.903Z,18.99
2023-10-06T12:17:46.421Z,19.24
2023-10-06T12:20:14.952Z,19.31
2023-10-06T12:22:43.945Z,19.46
2023-10-06T12:25:16.144Z,19.46
2023-10-06T12:27:48.230Z,19.47
2023-10-06T12:30:16.163Z,19.79
2023-10-06T12:32:48.702Z,19.62
2023-10-06T12:35:22.723Z,19.60
2023-10-06T12:37:50.039Z,19.57
2023-10-06T12:40:17.680Z,19.77
2023-10-06T12:42:44.982Z,19.96
2023-10-06T12:45:15.113Z,20.12
2023-10-06T12:47:41.896Z,20.12
2023-10-06T12:50:09.773Z,20.41
2023-10-06T12:52:38.139Z,20.67
2023-10-06T12:55:11.662Z,20.94
2023-10-06T12:57:40.073Z,20.65
2023-10-06T13:00:08.329Z,20.62
2023-10-06T13:02:36.374Z,20.56
2023-10-06T13:05:14.522Z,20.59
2023-10-06T13:07:43.880Z,19.81
2023-10-06T13:10:11.154Z,19.62
2023-10-06T13:12:41.334Z,19.65
2023-10-06T13:15:10.230Z,19.78
2023-10-06T13:17:41.586Z,19.85
2023-10-06T13:20:14.971Z,19.60
2023-10-06T13:22:43.646Z,19.68
2023-10-06T13:25:12.081Z,19.78
2023-10-06T13:27:40.981Z,19.85
2023-10-06T13:30:14.931Z,20.16
2023-10-06T13:32:48.676Z,20.19
2023-10-06T13:35:20.535Z,20.47
2023-10-06T13:37:48.358Z,20.05
2023-10-06T13:40:17.188Z,20.42
2023-10-06T13:42:51.383Z,20.51
2023-10-06T13:45:21.765Z,20.44
2023-10-06T13:47:49.331Z,20.58
2023-10-06T13:50:19.543Z,20.49
2023-10-06T13:52:48.727Z,20.17
2023-10-06T13:55:15.322Z,20.22
2023-10-06T13:57:45.242Z,20.07
2023-10-06T14:00:32.757Z,20.10
2023-10-06T14:03:10.238Z,20.25
2023-10-06T14:05:44.406Z,20.01
2023-10-06T14:08:15.730Z,20.36
2023-10-06T14:10:43.721Z,20.40
2023-10-06T14:13:18.309Z,20.35
2023-10-06T14:15:55.823Z,20.08
2023-10-06T14:18:27.761Z,20.34
2023-10-06T14:20:58.388Z,20.35
2023-10-06T14:23:30.789Z,20.12
2023-10-06T14:26:01.569Z,20.29
2023-10-06T14:28:29.421Z,20.51
2023-10-06T14:31:16.188Z,20.42
2023-10-06T14:33:48.562Z,20.02
2023-10-06T14:36:15.273Z,20.06
2023-10-06T14:38:44.403Z,20.22
2023-10-06T14:41:31.694Z,20.61
2023-10-06T14:44:18.690Z,20.42
2023-10-06T14:46:53.249Z,20.35
2023-10-06T14:49:24.971Z,20.55
2023-10-06T14:51:54.699Z,20.48
2023-10-06T14:54:21.503Z,20.21
2023-10-06T14:56:50.334Z,20.29
2023-10-06T14:59:20.053Z,20.19
2023-10-06T15:01:48.542Z,20.35
2023-10-06T15:04:15.244Z,20.41
2023-10-06T15:06:42.464Z,20.45
2023-10-06T15:09:09.921Z,20.20
2023-10-06T15:11:41.445Z,20.23
2023-10-06T15:14:12.385Z,20.05
2023-10-06T15:16:42.238Z,19.97
2023-10-06T15:19:09.293Z,20.02
2023-10-06T15:21:40.674Z,20.08
2023-10-06T15:24:11.905Z,19.95
2023-10-06T15:26:49.487Z,20.22
2023-10-06T15:29:21.162Z,19.78
2023-10-06T15:31:51.960Z,19.67
2023-10-06T15:34:19.187Z,19.46
2023-10-06T15:36:45.749Z,19.28
2023-10-06T15:39:19.063Z,19.02
2023-10-06T15:41:50.100Z,18.96
2023-10-06T15:44:18.054Z,18.59
2023-10-06T15:46:46.170Z,18.73
2023-10-06T15:49:15.160Z,18.64
2023-10-06T15:51:45.135Z,18.57
2023-10-06T15:54:11.697Z,18.34
2023-10-06T15:56:41.869Z,18.26
2023-10-06T15:59:19.420Z,18.10
2023-10-06T16:01:48.391Z,17.93
2023-10-06T16:04:16.100Z,17.77
2023-10-06T16:06:45.139Z,17.61
2023-10-06T16:09:17.087Z,17.32
2023-10-06T16:11:44.144Z,17.23
2023-10-06T16:14:10.791Z,17.04
2023-10-06T16:16:38.352Z,17.08
2023-10-06T16:19:05.425Z,17.02
2023-10-06T16:21:35.645Z,16.67
2023-10-06T16:24:06.164Z,16.69
2023-10-06T16:26:32.901Z,16.34
2023-10-06T16:28:59.753Z,16.04
2023-10-06T16:31:30.525Z,16.15
2023-10-06T16:33:58.152Z,15.85
2023-10-06T16:36:24.730Z,15.71
2023-10-06T16:38:51.973Z,15.73
2023-10-06T16:41:22.296Z,15.33
2023-10-06T16:43:57.016Z,15.21
2023-10-06T16:46:23.952Z,14.94
2023-10-06T16:48:50.570Z,14.73
2023-10-06T16:51:18.985Z,14.67
2023-10-06T16:53:48.960Z,14.50
2023-10-06T16:56:15.728Z,14.39
2023-10-06T16:58:42.606Z,13.59
2023-10-06T17:01:09.478Z,14.37
2023-10-06T17:03:36.221Z,14.28
2023-10-06T17:06:05.130Z,14.02
2023-10-06T17:08:32.062Z,13.82
2023-10-06T17:11:16.020Z,13.69
2023-10-06T17:13:43.567Z,13.66
2023-10-06T17:16:10.642Z,13.53
2023-10-06T17:18:37.569Z,13.33
2023-10-06T17:21:07.960Z,13.48
2023-10-06T17:23:35.112Z,13.22
2023-10-06T17:26:01.824Z,12.93
2023-10-06T17:28:29.073Z,12.68
2023-10-06T17:30:55.612Z,12.63
2023-10-06T17:33:22.621Z,12.53
2023-10-06T17:35:49.053Z,12.20
2023-10-06T17:38:17.419Z,12.11
2023-10-06T17:40:43.864Z,12.07
2023-10-06T17:43:13.044Z,12.20
2023-10-06T17:45:39.687Z,12.04
2023-10-06T17:48:07.053Z,11.96
2023-10-06T17:50:33.982Z,11.84
2023-10-06T17:53:00.708Z,11.68
2023-10-06T17:55:32.633Z,11.56
2023-10-06T17:57:59.624Z,11.47
2023-10-06T18:00:27.115Z,11.35
2023-10-06T18:02:53.843Z,10.82
2023-10-06T18:05:21.859Z,11.39
2023-10-06T18:07:48.548Z,11.13
2023-10-06T18:10:15.097Z,11.12
2023-10-06T18:12:43.076Z,11.13
2023-10-06T18:15:09.810Z,11.00
2023-10-06T18:17:38.822Z,10.93
2023-10-06T18:20:09.106Z,10.97
2023-10-06T18:22:37.334Z,10.86
2023-10-06T18:25:04.273Z,10.71
2023-10-06T18:27:30.711Z,10.69
2023-10-06T18:29:57.147Z,10.76
2023-10-06T18:32:23.610Z,10.47
2023-10-06T18:34:50.236Z,10.58
2023-10-06T18:37:17.690Z,10.79
2023-10-06T18:39:47.561Z,10.46
2023-10-06T18:42:16.817Z,10.33
2023-10-06T18:44:43.279Z,10.39
2023-10-06T18:47:11.374Z,10.18
2023-10-06T18:49:37.941Z,10.18
2023-10-06T18:52:04.947Z,10.42
2023-10-06T18:54:32.497Z,10.10
2023-10-06T18:56:59.047Z,10.32
2023-10-06T18:59:26.977Z,10.48
2023-10-06T19:01:54.538Z,10.27
2023-10-06T19:04:21.093Z,10.38
2023-10-06T19:06:48.584Z,10.14
2023-10-06T19:09:16.826Z,10.03
2023-10-06T19:11:46.235Z,10.15
2023-10-06T19:14:20.104Z,10.17
2023-10-06T19:16:58.145Z,10.11
2023-10-06T19:19:27.699Z,10.06
2023-10-06T19:21:55.398Z,9.81
2023-10-06T19:24:21.882Z,9.59
2023-10-06T19:26:51.967Z,9.42
2023-10-06T19:29:24.786Z,9.51
2023-10-06T19:32:01.022Z,9.55
2023-10-06T19:34:41.098Z,9.41
2023-10-06T19:37:12.109Z,9.30
2023-10-06T19:39:38.893Z,9.38
2023-10-06T19:42:05.762Z,9.30
2023-10-06T19:44:36.974Z,8.99
2023-10-06T19:47:06.403Z,8.89
2023-10-06T19:49:38.615Z,8.72
2023-10-06T19:52:09.359Z,9.04
2023-10-06T19:54:37.089Z,8.92
2023-10-06T19:57:03.948Z,8.88
2023-10-06T19:59:33.575Z,9.14
2023-10-06T20:02:01.899Z,8.95
2023-10-06T20:04:28.575Z,9.07
2023-10-06T20:06:55.512Z,8.78
2023-10-06T20:09:25.035Z,8.66
2023-10-06T20:11:51.876Z,8.95
2023-10-06T20:14:19.144Z,8.86
2023-10-06T20:16:45.675Z,9.24
2023-10-06T20:19:12.655Z,8.90
2023-10-06T20:21:40.513Z,9.01
2023-10-06T20:24:09.817Z,8.86
2023-10-06T20:26:36.680Z,8.75
2023-10-06T20:29:10.383Z,8.71
2023-10-06T20:55:48.279Z,8.22
2023-10-06T20:58:15.753Z,8.11
2023-10-06T21:00:42.278Z,8.06
2023-10-06T21:03:09.723Z,8.18
2023-10-06T21:05:36.457Z,8.14
2023-10-06T21:08:03.024Z,8.48
2023-10-06T21:10:29.556Z,8.13
2023-10-06T21:12:56.026Z,8.04
2023-10-06T21:15:24.603Z,8.06
2023-10-06T21:17:55.331Z,7.92
2023-10-06T21:20:23.434Z,8.09
2023-10-06T21:22:49.896Z,8.20
2023-10-06T21:25:18.285Z,8.03
2023-10-06T21:27:46.567Z,8.01
2023-10-06T21:30:17.076Z,8.22
2023-10-06T21:32:45.375Z,8.24
2023-10-06T21:35:13.660Z,8.26
2023-10-06T21:37:40.805Z,8.29
2023-10-06T21:40:09.615Z,8.18
2023-10-06T21:42:36.625Z,8.08
2023-10-06T21:45:04.961Z,8.05
2023-10-06T21:47:33.385Z,7.80
2023-10-06T21:50:00.288Z,7.97
2023-10-06T21:52:30.175Z,7.81
2023-10-06T21:54:57.422Z,7.97
2023-10-06T21:57:26.366Z,7.91
2023-10-06T21:59:53.914Z,7.99
2023-10-06T22:02:20.523Z,7.87
2023-10-06T22:04:48.240Z,7.69
2023-10-06T22:07:15.958Z,7.64
2023-10-06T22:09:42.882Z,7.82
2023-10-06T22:12:10.477Z,7.54
2023-10-06T22:14:37.440Z,7.54
2023-10-06T22:17:05.755Z,7.50
2023-10-06T22:19:36.568Z,7.61
2023-10-06T22:22:03.636Z,7.54
2023-10-06T22:24:31.190Z,7.51
2023-10-06T22:27:07.771Z,7.62
2023-10-06T22:29:35.178Z,7.43
2023-10-06T22:32:01.706Z,7.33
2023-10-06T22:34:28.391Z,7.15
2023-10-06T22:36:59.149Z,7.11
2023-10-06T22:39:31.700Z,7.21
2023-10-06T22:41:58.169Z,7.17
2023-10-06T22:44:25.192Z,7.18
2023-10-06T22:46:52.610Z,6.97
2023-10-06T22:49:22.464Z,6.97
2023-10-06T22:51:50.669Z,6.87
2023-10-06T22:54:18.559Z,6.75
2023-10-06T22:56:45.049Z,6.86
2023-10-06T22:59:12.478Z,6.85
2023-10-06T23:01:39.488Z,6.74
2023-10-06T23:04:07.962Z,6.86
2023-10-06T23:06:34.678Z,6.71
2023-10-06T23:09:01.180Z,6.62
2023-10-06T23:11:27.830Z,6.60
2023-10-06T23:13:54.333Z,6.80
2023-10-06T23:16:20.963Z,6.59
2023-10-06T23:18:47.543Z,6.52
2023-10-06T23:21:14.868Z,6.59
2023-10-06T23:23:42.827Z,6.63
2023-10-06T23:26:09.946Z,6.70
2023-10-06T23:28:37.705Z,6.45
2023-10-06T23:31:04.588Z,6.31
2023-10-06T23:33:31.768Z,6.33
2023-10-06T23:35:59.300Z,6.22
2023-10-06T23:38:26.228Z,6.29
2023-10-06T23:40:53.630Z,6.44
2023-10-06T23:43:23.829Z,6.22
2023-10-06T23:45:51.595Z,6.22
2023-10-06T23:48:19.539Z,6.13
2023-10-06T23:50:59.863Z,5.53
2023-10-06T23:53:29.643Z,6.08
2023-10-06T23:56:01.246Z,6.17
2023-10-06T23:58:33.495Z,5.84
